Terminal Aerodrome Forecast
Issued by NWS Cleveland, OH

Home | Current Version | Previous Version | Graphics & Text | Print | Product List | Glossary On
Versions: 1 2 3 4 5 6 7 8 9 10 11 12 13 14 15 16 17 18 19 20
000
FTUS41 KCLE 240500
TAFCAK
TAF
KCAK 240525Z 2406/2506 16018G28KT 4SM -SHRA SCT012 OVC022
      TEMPO 2406/2407 OVC012
     FM240800 18018G28KT P6SM OVC035
     FM241800 22028G40KT P6SM OVC035
      TEMPO 2418/2420 3SM -SHRA
     FM250000 24022G32KT P6SM OVC035=

USA.gov is the U.S. government's official web portal to all federal, state and local government web resources and services.